sensor_id;sensor_type;location;lat;lon;timestamp;P1;durP1;ratioP1;P2;durP2;ratioP2
19566;SDS011;9930;49.240;8.548;2023-04-23T00:02:14;1.88;;;1.77;;
19566;SDS011;9930;49.240;8.548;2023-04-23T00:04:44;2.83;;;2.10;;
19566;SDS011;9930;49.240;8.548;2023-04-23T00:07:17;2.90;;;2.45;;
19566;SDS011;9930;49.240;8.548;2023-04-23T00:09:45;2.97;;;2.47;;
19566;SDS011;9930;49.240;8.548;2023-04-23T00:12:15;2.45;;;2.25;;
19566;SDS011;9930;49.240;8.548;2023-04-23T00:14:45;2.55;;;2.35;;
19566;SDS011;9930;49.240;8.548;2023-04-23T00:17:10;2.60;;;2.40;;
19566;SDS011;9930;49.240;8.548;2023-04-23T00:19:39;2.83;;;2.42;;
19566;SDS011;9930;49.240;8.548;2023-04-23T00:22:09;2.35;;;2.15;;
19566;SDS011;9930;49.240;8.548;2023-04-23T00:24:35;2.78;;;2.58;;
19566;SDS011;9930;49.240;8.548;2023-04-23T00:27:04;2.72;;;2.53;;
19566;SDS011;9930;49.240;8.548;2023-04-23T00:29:32;2.40;;;2.20;;
19566;SDS011;9930;49.240;8.548;2023-04-23T00:31:58;2.72;;;2.53;;
19566;SDS011;9930;49.240;8.548;2023-04-23T00:34:24;2.95;;;2.72;;
19566;SDS011;9930;49.240;8.548;2023-04-23T00:36:50;2.58;;;2.38;;
19566;SDS011;9930;49.240;8.548;2023-04-23T00:39:19;3.78;;;3.00;;
19566;SDS011;9930;49.240;8.548;2023-04-23T00:41:47;3.90;;;2.67;;
19566;SDS011;9930;49.240;8.548;2023-04-23T00:44:16;3.20;;;2.90;;
19566;SDS011;9930;49.240;8.548;2023-04-23T00:46:41;3.03;;;2.83;;
19566;SDS011;9930;49.240;8.548;2023-04-23T00:49:07;3.10;;;2.70;;
19566;SDS011;9930;49.240;8.548;2023-04-23T00:51:35;3.00;;;2.78;;
19566;SDS011;9930;49.240;8.548;2023-04-23T00:54:01;2.78;;;2.40;;
19566;SDS011;9930;49.240;8.548;2023-04-23T00:56:26;3.75;;;2.60;;
19566;SDS011;9930;49.240;8.548;2023-04-23T00:58:53;2.85;;;2.55;;
19566;SDS011;9930;49.240;8.548;2023-04-23T01:01:23;2.70;;;2.50;;
19566;SDS011;9930;49.240;8.548;2023-04-23T01:03:52;2.60;;;2.40;;
19566;SDS011;9930;49.240;8.548;2023-04-23T01:06:17;2.85;;;2.65;;
19566;SDS011;9930;49.240;8.548;2023-04-23T01:08:48;3.30;;;2.75;;
19566;SDS011;9930;49.240;8.548;2023-04-23T01:11:15;3.38;;;3.00;;
19566;SDS011;9930;49.240;8.548;2023-04-23T01:13:43;2.75;;;2.55;;
19566;SDS011;9930;49.240;8.548;2023-04-23T01:16:10;3.00;;;2.80;;
19566;SDS011;9930;49.240;8.548;2023-04-23T01:18:43;5.55;;;3.22;;
19566;SDS011;9930;49.240;8.548;2023-04-23T01:21:10;3.40;;;3.08;;
19566;SDS011;9930;49.240;8.548;2023-04-23T01:23:42;3.30;;;3.00;;
19566;SDS011;9930;49.240;8.548;2023-04-23T01:26:07;3.53;;;3.20;;
19566;SDS011;9930;49.240;8.548;2023-04-23T01:28:35;2.75;;;2.55;;
19566;SDS011;9930;49.240;8.548;2023-04-23T01:31:08;3.38;;;3.08;;
19566;SDS011;9930;49.240;8.548;2023-04-23T01:33:43;3.30;;;2.80;;
19566;SDS011;9930;49.240;8.548;2023-04-23T01:36:09;2.92;;;2.60;;
19566;SDS011;9930;49.240;8.548;2023-04-23T01:38:37;2.90;;;2.53;;
19566;SDS011;9930;49.240;8.548;2023-04-23T01:41:08;3.10;;;2.83;;
19566;SDS011;9930;49.240;8.548;2023-04-23T01:43:35;3.15;;;2.85;;
19566;SDS011;9930;49.240;8.548;2023-04-23T01:46:05;3.13;;;2.90;;
19566;SDS011;9930;49.240;8.548;2023-04-23T01:48:35;3.03;;;2.72;;
19566;SDS011;9930;49.240;8.548;2023-04-23T01:51:06;3.00;;;2.80;;
19566;SDS011;9930;49.240;8.548;2023-04-23T01:53:33;2.92;;;2.72;;
19566;SDS011;9930;49.240;8.548;2023-04-23T01:56:01;3.35;;;2.78;;
19566;SDS011;9930;49.240;8.548;2023-04-23T01:58:27;3.13;;;2.60;;
19566;SDS011;9930;49.240;8.548;2023-04-23T02:00:55;3.05;;;2.47;;
19566;SDS011;9930;49.240;8.548;2023-04-23T02:03:24;2.63;;;2.35;;
19566;SDS011;9930;49.240;8.548;2023-04-23T02:05:49;4.22;;;3.00;;
19566;SDS011;9930;49.240;8.548;2023-04-23T02:08:19;3.70;;;3.13;;
19566;SDS011;9930;49.240;8.548;2023-04-23T02:10:45;3.20;;;2.90;;
19566;SDS011;9930;49.240;8.548;2023-04-23T02:13:13;3.30;;;3.00;;
19566;SDS011;9930;49.240;8.548;2023-04-23T02:15:39;3.47;;;3.17;;
19566;SDS011;9930;49.240;8.548;2023-04-23T02:18:09;2.83;;;2.55;;
19566;SDS011;9930;49.240;8.548;2023-04-23T02:20:40;3.35;;;3.10;;
19566;SDS011;9930;49.240;8.548;2023-04-23T02:23:11;3.65;;;2.90;;
19566;SDS011;9930;49.240;8.548;2023-04-23T02:25:39;3.40;;;3.10;;
19566;SDS011;9930;49.240;8.548;2023-04-23T02:28:08;3.30;;;2.95;;
19566;SDS011;9930;49.240;8.548;2023-04-23T02:30:37;3.67;;;3.38;;
19566;SDS011;9930;49.240;8.548;2023-04-23T02:33:09;3.55;;;3.25;;
19566;SDS011;9930;49.240;8.548;2023-04-23T02:35:38;3.42;;;3.13;;
19566;SDS011;9930;49.240;8.548;2023-04-23T02:38:07;3.30;;;3.10;;
19566;SDS011;9930;49.240;8.548;2023-04-23T02:40:36;3.60;;;3.30;;
19566;SDS011;9930;49.240;8.548;2023-04-23T02:43:06;5.22;;;3.30;;
19566;SDS011;9930;49.240;8.548;2023-04-23T02:45:35;3.80;;;3.50;;
19566;SDS011;9930;49.240;8.548;2023-04-23T02:48:05;4.10;;;3.80;;
19566;SDS011;9930;49.240;8.548;2023-04-23T02:50:30;3.72;;;3.35;;
19566;SDS011;9930;49.240;8.548;2023-04-23T02:52:56;3.55;;;3.25;;
19566;SDS011;9930;49.240;8.548;2023-04-23T02:55:21;3.50;;;3.20;;
19566;SDS011;9930;49.240;8.548;2023-04-23T02:57:49;3.17;;;2.88;;
19566;SDS011;9930;49.240;8.548;2023-04-23T03:00:15;4.00;;;2.60;;
19566;SDS011;9930;49.240;8.548;2023-04-23T03:02:44;2.75;;;2.55;;
19566;SDS011;9930;49.240;8.548;2023-04-23T03:05:11;2.63;;;2.40;;
19566;SDS011;9930;49.240;8.548;2023-04-23T03:07:39;2.50;;;2.30;;
19566;SDS011;9930;49.240;8.548;2023-04-23T03:10:05;2.55;;;2.35;;
19566;SDS011;9930;49.240;8.548;2023-04-23T03:12:34;2.70;;;2.28;;
19566;SDS011;9930;49.240;8.548;2023-04-23T03:15:00;2.58;;;2.38;;
19566;SDS011;9930;49.240;8.548;2023-04-23T03:17:28;2.50;;;2.30;;
19566;SDS011;9930;49.240;8.548;2023-04-23T03:19:56;2.35;;;2.15;;
19566;SDS011;9930;49.240;8.548;2023-04-23T03:22:24;2.60;;;2.40;;
19566;SDS011;9930;49.240;8.548;2023-04-23T03:24:55;2.45;;;2.25;;
19566;SDS011;9930;49.240;8.548;2023-04-23T03:27:23;2.67;;;2.47;;
19566;SDS011;9930;49.240;8.548;2023-04-23T03:29:48;2.42;;;2.22;;
19566;SDS011;9930;49.240;8.548;2023-04-23T03:32:16;2.25;;;2.05;;
19566;SDS011;9930;49.240;8.548;2023-04-23T03:34:44;1.90;;;1.80;;
19566;SDS011;9930;49.240;8.548;2023-04-23T03:37:10;2.28;;;2.08;;
19566;SDS011;9930;49.240;8.548;2023-04-23T03:39:37;1.90;;;1.80;;
19566;SDS011;9930;49.240;8.548;2023-04-23T03:42:03;1.70;;;1.60;;
19566;SDS011;9930;49.240;8.548;2023-04-23T03:44:29;1.80;;;1.70;;
19566;SDS011;9930;49.240;8.548;2023-04-23T03:47:00;3.03;;;2.05;;
19566;SDS011;9930;49.240;8.548;2023-04-23T03:49:29;1.85;;;1.70;;
19566;SDS011;9930;49.240;8.548;2023-04-23T03:51:56;2.05;;;1.90;;
19566;SDS011;9930;49.240;8.548;2023-04-23T03:54:22;1.77;;;1.67;;
19566;SDS011;9930;49.240;8.548;2023-04-23T03:56:49;2.17;;;2.08;;
19566;SDS011;9930;49.240;8.548;2023-04-23T03:59:15;2.35;;;2.15;;
19566;SDS011;9930;49.240;8.548;2023-04-23T04:01:43;2.13;;;1.92;;
19566;SDS011;9930;49.240;8.548;2023-04-23T04:04:08;1.83;;;1.70;;
19566;SDS011;9930;49.240;8.548;2023-04-23T04:06:34;2.00;;;1.90;;
19566;SDS011;9930;49.240;8.548;2023-04-23T04:09:00;1.98;;;1.88;;
19566;SDS011;9930;49.240;8.548;2023-04-23T04:11:26;2.40;;;1.88;;
19566;SDS011;9930;49.240;8.548;2023-04-23T04:13:51;1.98;;;1.88;;
19566;SDS011;9930;49.240;8.548;2023-04-23T04:16:19;2.20;;;2.00;;
19566;SDS011;9930;49.240;8.548;2023-04-23T04:18:49;2.03;;;1.90;;
19566;SDS011;9930;49.240;8.548;2023-04-23T04:21:17;2.42;;;2.30;;
19566;SDS011;9930;49.240;8.548;2023-04-23T04:23:43;3.10;;;2.80;;
19566;SDS011;9930;49.240;8.548;2023-04-23T04:26:12;3.15;;;2.95;;
19566;SDS011;9930;49.240;8.548;2023-04-23T04:28:40;3.03;;;2.83;;
19566;SDS011;9930;49.240;8.548;2023-04-23T04:31:05;3.63;;;3.33;;
19566;SDS011;9930;49.240;8.548;2023-04-23T04:33:34;3.00;;;2.80;;
19566;SDS011;9930;49.240;8.548;2023-04-23T04:36:04;3.95;;;3.33;;
19566;SDS011;9930;49.240;8.548;2023-04-23T04:38:35;3.13;;;2.92;;
19566;SDS011;9930;49.240;8.548;2023-04-23T04:41:05;4.25;;;3.50;;
19566;SDS011;9930;49.240;8.548;2023-04-23T04:43:37;3.97;;;3.58;;
19566;SDS011;9930;49.240;8.548;2023-04-23T04:46:09;3.97;;;3.67;;
19566;SDS011;9930;49.240;8.548;2023-04-23T04:48:35;3.65;;;3.35;;
19566;SDS011;9930;49.240;8.548;2023-04-23T04:51:08;3.67;;;3.30;;
19566;SDS011;9930;49.240;8.548;2023-04-23T04:53:41;4.00;;;3.70;;
19566;SDS011;9930;49.240;8.548;2023-04-23T04:56:07;4.35;;;4.00;;
19566;SDS011;9930;49.240;8.548;2023-04-23T04:58:34;4.30;;;4.00;;
19566;SDS011;9930;49.240;8.548;2023-04-23T05:01:03;4.65;;;4.25;;
19566;SDS011;9930;49.240;8.548;2023-04-23T05:03:29;4.30;;;3.90;;
19566;SDS011;9930;49.240;8.548;2023-04-23T05:05:57;4.03;;;3.58;;
19566;SDS011;9930;49.240;8.548;2023-04-23T05:08:23;4.65;;;4.25;;
19566;SDS011;9930;49.240;8.548;2023-04-23T05:10:49;4.53;;;4.22;;
19566;SDS011;9930;49.240;8.548;2023-04-23T05:13:16;4.75;;;4.35;;
19566;SDS011;9930;49.240;8.548;2023-04-23T05:15:44;7.35;;;6.85;;
19566;SDS011;9930;49.240;8.548;2023-04-23T05:18:10;6.47;;;5.88;;
19566;SDS011;9930;49.240;8.548;2023-04-23T05:20:37;10.80;;;9.70;;
19566;SDS011;9930;49.240;8.548;2023-04-23T05:23:07;6.15;;;5.63;;
19566;SDS011;9930;49.240;8.548;2023-04-23T05:25:36;4.70;;;3.92;;
19566;SDS011;9930;49.240;8.548;2023-04-23T05:28:04;3.55;;;3.33;;
19566;SDS011;9930;49.240;8.548;2023-04-23T05:30:29;3.60;;;3.30;;
19566;SDS011;9930;49.240;8.548;2023-04-23T05:32:57;3.22;;;3.03;;
19566;SDS011;9930;49.240;8.548;2023-04-23T05:35:23;3.55;;;3.25;;
19566;SDS011;9930;49.240;8.548;2023-04-23T05:37:48;3.15;;;2.95;;
19566;SDS011;9930;49.240;8.548;2023-04-23T05:40:15;3.40;;;3.10;;
19566;SDS011;9930;49.240;8.548;2023-04-23T05:42:43;3.00;;;2.78;;
19566;SDS011;9930;49.240;8.548;2023-04-23T05:45:09;3.22;;;3.03;;
19566;SDS011;9930;49.240;8.548;2023-04-23T05:47:35;3.08;;;2.88;;
19566;SDS011;9930;49.240;8.548;2023-04-23T05:50:01;3.22;;;2.92;;
19566;SDS011;9930;49.240;8.548;2023-04-23T05:52:27;3.03;;;2.75;;
19566;SDS011;9930;49.240;8.548;2023-04-23T05:54:55;2.67;;;2.47;;
19566;SDS011;9930;49.240;8.548;2023-04-23T05:57:21;2.90;;;2.70;;
19566;SDS011;9930;49.240;8.548;2023-04-23T05:59:51;3.42;;;2.60;;
19566;SDS011;9930;49.240;8.548;2023-04-23T06:02:21;2.97;;;2.78;;
19566;SDS011;9930;49.240;8.548;2023-04-23T06:04:48;2.80;;;2.60;;
19566;SDS011;9930;49.240;8.548;2023-04-23T06:07:13;2.78;;;2.58;;
19566;SDS011;9930;49.240;8.548;2023-04-23T06:09:41;2.55;;;2.35;;
19566;SDS011;9930;49.240;8.548;2023-04-23T06:12:09;2.63;;;2.42;;
19566;SDS011;9930;49.240;8.548;2023-04-23T06:14:35;2.65;;;2.45;;
19566;SDS011;9930;49.240;8.548;2023-04-23T06:17:03;3.00;;;2.30;;
19566;SDS011;9930;49.240;8.548;2023-04-23T06:19:30;2.63;;;2.42;;
19566;SDS011;9930;49.240;8.548;2023-04-23T06:21:56;2.70;;;2.50;;
19566;SDS011;9930;49.240;8.548;2023-04-23T06:24:24;2.35;;;2.17;;
19566;SDS011;9930;49.240;8.548;2023-04-23T06:26:52;2.95;;;2.75;;
19566;SDS011;9930;49.240;8.548;2023-04-23T06:29:18;3.03;;;2.80;;
19566;SDS011;9930;49.240;8.548;2023-04-23T06:31:43;3.10;;;2.90;;
19566;SDS011;9930;49.240;8.548;2023-04-23T06:34:09;3.15;;;2.95;;
19566;SDS011;9930;49.240;8.548;2023-04-23T06:36:40;3.15;;;2.95;;
19566;SDS011;9930;49.240;8.548;2023-04-23T06:39:08;3.30;;;3.00;;
19566;SDS011;9930;49.240;8.548;2023-04-23T06:41:37;3.60;;;3.30;;
19566;SDS011;9930;49.240;8.548;2023-04-23T06:44:10;3.03;;;2.78;;
19566;SDS011;9930;49.240;8.548;2023-04-23T06:46:39;3.55;;;3.20;;
19566;SDS011;9930;49.240;8.548;2023-04-23T06:49:06;3.10;;;2.90;;
19566;SDS011;9930;49.240;8.548;2023-04-23T06:51:35;3.75;;;3.45;;
19566;SDS011;9930;49.240;8.548;2023-04-23T06:54:01;4.03;;;3.72;;
19566;SDS011;9930;49.240;8.548;2023-04-23T06:56:29;10.13;;;9.35;;
19566;SDS011;9930;49.240;8.548;2023-04-23T06:58:54;5.82;;;5.43;;
19566;SDS011;9930;49.240;8.548;2023-04-23T07:01:22;4.10;;;3.80;;
19566;SDS011;9930;49.240;8.548;2023-04-23T07:03:52;3.90;;;3.60;;
19566;SDS011;9930;49.240;8.548;2023-04-23T07:06:18;4.22;;;3.92;;
19566;SDS011;9930;49.240;8.548;2023-04-23T07:08:44;6.18;;;5.78;;
19566;SDS011;9930;49.240;8.548;2023-04-23T07:11:12;4.00;;;3.70;;
19566;SDS011;9930;49.240;8.548;2023-04-23T07:13:40;3.50;;;3.20;;
19566;SDS011;9930;49.240;8.548;2023-04-23T07:16:09;3.33;;;3.13;;
19566;SDS011;9930;49.240;8.548;2023-04-23T07:18:34;3.50;;;3.30;;
19566;SDS011;9930;49.240;8.548;2023-04-23T07:21:00;3.20;;;3.00;;
19566;SDS011;9930;49.240;8.548;2023-04-23T07:23:26;3.30;;;3.08;;
19566;SDS011;9930;49.240;8.548;2023-04-23T07:25:52;3.17;;;2.75;;
19566;SDS011;9930;49.240;8.548;2023-04-23T07:28:18;2.67;;;2.47;;
19566;SDS011;9930;49.240;8.548;2023-04-23T07:30:43;2.75;;;2.55;;
19566;SDS011;9930;49.240;8.548;2023-04-23T07:33:11;3.00;;;2.72;;
19566;SDS011;9930;49.240;8.548;2023-04-23T07:35:39;2.85;;;2.65;;
19566;SDS011;9930;49.240;8.548;2023-04-23T07:38:04;2.40;;;2.20;;
19566;SDS011;9930;49.240;8.548;2023-04-23T07:40:36;2.55;;;2.30;;
19566;SDS011;9930;49.240;8.548;2023-04-23T07:43:03;2.22;;;2.08;;
19566;SDS011;9930;49.240;8.548;2023-04-23T07:45:31;2.10;;;2.00;;
19566;SDS011;9930;49.240;8.548;2023-04-23T07:47:56;2.25;;;1.90;;
19566;SDS011;9930;49.240;8.548;2023-04-23T07:50:23;2.10;;;2.00;;
19566;SDS011;9930;49.240;8.548;2023-04-23T07:52:48;2.53;;;2.05;;
19566;SDS011;9930;49.240;8.548;2023-04-23T07:55:14;2.45;;;2.25;;
19566;SDS011;9930;49.240;8.548;2023-04-23T07:57:44;1.92;;;1.83;;
19566;SDS011;9930;49.240;8.548;2023-04-23T08:00:12;1.90;;;1.80;;
19566;SDS011;9930;49.240;8.548;2023-04-23T08:02:39;2.17;;;2.00;;
19566;SDS011;9930;49.240;8.548;2023-04-23T08:05:04;2.05;;;1.95;;
19566;SDS011;9930;49.240;8.548;2023-04-23T08:07:31;2.22;;;1.95;;
19566;SDS011;9930;49.240;8.548;2023-04-23T08:09:59;2.00;;;1.90;;
19566;SDS011;9930;49.240;8.548;2023-04-23T08:12:29;2.00;;;1.80;;
19566;SDS011;9930;49.240;8.548;2023-04-23T08:14:58;2.10;;;2.00;;
19566;SDS011;9930;49.240;8.548;2023-04-23T08:17:23;2.30;;;1.90;;
19566;SDS011;9930;49.240;8.548;2023-04-23T08:19:49;2.60;;;2.20;;
19566;SDS011;9930;49.240;8.548;2023-04-23T08:22:15;1.80;;;1.70;;
19566;SDS011;9930;49.240;8.548;2023-04-23T08:24:43;1.70;;;1.60;;
19566;SDS011;9930;49.240;8.548;2023-04-23T08:27:10;2.03;;;1.70;;
19566;SDS011;9930;49.240;8.548;2023-04-23T08:29:38;1.50;;;1.40;;
19566;SDS011;9930;49.240;8.548;2023-04-23T08:32:07;1.50;;;1.40;;
19566;SDS011;9930;49.240;8.548;2023-04-23T08:34:33;2.08;;;1.98;;
19566;SDS011;9930;49.240;8.548;2023-04-23T08:37:01;1.65;;;1.55;;
19566;SDS011;9930;49.240;8.548;2023-04-23T08:39:27;1.63;;;1.52;;
19566;SDS011;9930;49.240;8.548;2023-04-23T08:41:54;1.90;;;1.80;;
19566;SDS011;9930;49.240;8.548;2023-04-23T08:44:24;2.00;;;1.90;;
19566;SDS011;9930;49.240;8.548;2023-04-23T08:46:53;1.70;;;1.60;;
19566;SDS011;9930;49.240;8.548;2023-04-23T08:49:19;2.00;;;1.90;;
19566;SDS011;9930;49.240;8.548;2023-04-23T08:51:47;1.67;;;1.58;;
19566;SDS011;9930;49.240;8.548;2023-04-23T08:54:34;1.73;;;1.63;;
19566;SDS011;9930;49.240;8.548;2023-04-23T08:57:08;1.83;;;1.70;;
19566;SDS011;9930;49.240;8.548;2023-04-23T08:59:36;2.10;;;2.00;;
19566;SDS011;9930;49.240;8.548;2023-04-23T09:02:06;1.67;;;1.58;;
19566;SDS011;9930;49.240;8.548;2023-04-23T09:04:36;1.65;;;1.48;;
19566;SDS011;9930;49.240;8.548;2023-04-23T09:07:09;1.55;;;1.45;;
19566;SDS011;9930;49.240;8.548;2023-04-23T09:09:38;1.85;;;1.70;;
19566;SDS011;9930;49.240;8.548;2023-04-23T09:12:11;2.00;;;1.90;;
19566;SDS011;9930;49.240;8.548;2023-04-23T09:14:39;2.00;;;1.80;;
19566;SDS011;9930;49.240;8.548;2023-04-23T09:17:06;2.40;;;1.83;;
19566;SDS011;9930;49.240;8.548;2023-04-23T09:19:34;1.70;;;1.60;;
19566;SDS011;9930;49.240;8.548;2023-04-23T09:22:03;1.65;;;1.55;;
19566;SDS011;9930;49.240;8.548;2023-04-23T09:24:31;1.70;;;1.60;;
19566;SDS011;9930;49.240;8.548;2023-04-23T09:27:03;1.52;;;1.42;;
19566;SDS011;9930;49.240;8.548;2023-04-23T09:29:32;1.60;;;1.50;;
19566;SDS011;9930;49.240;8.548;2023-04-23T09:32:15;2.67;;;1.40;;
19566;SDS011;9930;49.240;8.548;2023-04-23T09:34:41;1.52;;;1.42;;
19566;SDS011;9930;49.240;8.548;2023-04-23T09:37:08;1.55;;;1.35;;
19566;SDS011;9930;49.240;8.548;2023-04-23T09:39:41;1.60;;;1.50;;
19566;SDS011;9930;49.240;8.548;2023-04-23T09:42:09;1.90;;;1.42;;
19566;SDS011;9930;49.240;8.548;2023-04-23T09:44:39;1.73;;;1.63;;
19566;SDS011;9930;49.240;8.548;2023-04-23T09:47:05;1.88;;;1.35;;
19566;SDS011;9930;49.240;8.548;2023-04-23T09:49:48;1.23;;;1.20;;
19566;SDS011;9930;49.240;8.548;2023-04-23T09:52:15;1.90;;;1.63;;
19566;SDS011;9930;49.240;8.548;2023-04-23T09:54:42;1.70;;;1.60;;
19566;SDS011;9930;49.240;8.548;2023-04-23T09:57:11;1.35;;;1.27;;
19566;SDS011;9930;49.240;8.548;2023-04-23T09:59:38;1.73;;;1.35;;
19566;SDS011;9930;49.240;8.548;2023-04-23T10:02:05;1.45;;;1.30;;
19566;SDS011;9930;49.240;8.548;2023-04-23T10:04:34;1.30;;;1.20;;
19566;SDS011;9930;49.240;8.548;2023-04-23T10:07:01;1.70;;;1.48;;
19566;SDS011;9930;49.240;8.548;2023-04-23T10:09:32;2.22;;;1.70;;
19566;SDS011;9930;49.240;8.548;2023-04-23T10:11:59;1.40;;;1.30;;
19566;SDS011;9930;49.240;8.548;2023-04-23T10:14:27;1.60;;;1.50;;
19566;SDS011;9930;49.240;8.548;2023-04-23T10:19:28;1.65;;;1.50;;
19566;SDS011;9930;49.240;8.548;2023-04-23T10:21:57;1.35;;;1.25;;
19566;SDS011;9930;49.240;8.548;2023-04-23T10:24:28;1.70;;;1.40;;
19566;SDS011;9930;49.240;8.548;2023-04-23T10:27:03;1.63;;;1.52;;
19566;SDS011;9930;49.240;8.548;2023-04-23T10:32:00;1.50;;;1.35;;
19566;SDS011;9930;49.240;8.548;2023-04-23T10:34:31;1.40;;;1.30;;
19566;SDS011;9930;49.240;8.548;2023-04-23T10:36:58;1.50;;;1.40;;
19566;SDS011;9930;49.240;8.548;2023-04-23T10:39:34;1.50;;;1.40;;
19566;SDS011;9930;49.240;8.548;2023-04-23T10:42:01;1.50;;;1.40;;
19566;SDS011;9930;49.240;8.548;2023-04-23T10:44:32;1.50;;;1.40;;
19566;SDS011;9930;49.240;8.548;2023-04-23T10:47:13;2.03;;;1.30;;
19566;SDS011;9930;49.240;8.548;2023-04-23T10:49:42;1.40;;;1.30;;
19566;SDS011;9930;49.240;8.548;2023-04-23T10:54:59;1.60;;;1.50;;
19566;SDS011;9930;49.240;8.548;2023-04-23T10:57:28;1.45;;;1.35;;
19566;SDS011;9930;49.240;8.548;2023-04-23T10:59:54;1.55;;;1.40;;
19566;SDS011;9930;49.240;8.548;2023-04-23T11:02:25;1.48;;;1.38;;
19566;SDS011;9930;49.240;8.548;2023-04-23T11:05:08;1.40;;;1.30;;
19566;SDS011;9930;49.240;8.548;2023-04-23T11:07:34;1.27;;;1.20;;
19566;SDS011;9930;49.240;8.548;2023-04-23T11:10:12;1.55;;;1.17;;
19566;SDS011;9930;49.240;8.548;2023-04-23T11:12:42;1.50;;;1.20;;
19566;SDS011;9930;49.240;8.548;2023-04-23T11:15:09;1.48;;;1.33;;
19566;SDS011;9930;49.240;8.548;2023-04-23T11:17:58;1.13;;;1.05;;
19566;SDS011;9930;49.240;8.548;2023-04-23T11:20:27;1.30;;;1.20;;
19566;SDS011;9930;49.240;8.548;2023-04-23T11:22:55;1.23;;;1.13;;
19566;SDS011;9930;49.240;8.548;2023-04-23T11:25:22;1.38;;;1.27;;
19566;SDS011;9930;49.240;8.548;2023-04-23T11:27:56;1.30;;;1.20;;
19566;SDS011;9930;49.240;8.548;2023-04-23T11:30:26;1.35;;;1.20;;
19566;SDS011;9930;49.240;8.548;2023-04-23T11:32:54;1.48;;;1.38;;
19566;SDS011;9930;49.240;8.548;2023-04-23T11:35:23;1.33;;;1.23;;
19566;SDS011;9930;49.240;8.548;2023-04-23T11:37:54;1.38;;;1.27;;
19566;SDS011;9930;49.240;8.548;2023-04-23T11:40:20;1.45;;;1.35;;
19566;SDS011;9930;49.240;8.548;2023-04-23T11:42:52;1.35;;;1.25;;
19566;SDS011;9930;49.240;8.548;2023-04-23T11:47:51;1.20;;;1.10;;
19566;SDS011;9930;49.240;8.548;2023-04-23T11:50:23;1.20;;;1.10;;
19566;SDS011;9930;49.240;8.548;2023-04-23T11:52:51;1.25;;;1.15;;
19566;SDS011;9930;49.240;8.548;2023-04-23T11:55:18;1.20;;;1.10;;
19566;SDS011;9930;49.240;8.548;2023-04-23T11:57:46;1.27;;;1.10;;
19566;SDS011;9930;49.240;8.548;2023-04-23T12:00:19;0.90;;;0.90;;
19566;SDS011;9930;49.240;8.548;2023-04-23T12:13:24;1.20;;;1.10;;
19566;SDS011;9930;49.240;8.548;2023-04-23T12:15:55;0.90;;;0.88;;
19566;SDS011;9930;49.240;8.548;2023-04-23T12:18:32;1.30;;;1.20;;
19566;SDS011;9930;49.240;8.548;2023-04-23T12:21:04;1.33;;;1.20;;
19566;SDS011;9930;49.240;8.548;2023-04-23T12:23:33;2.55;;;2.35;;
19566;SDS011;9930;49.240;8.548;2023-04-23T12:26:01;1.20;;;1.20;;
19566;SDS011;9930;49.240;8.548;2023-04-23T12:28:30;1.17;;;1.08;;
19566;SDS011;9930;49.240;8.548;2023-04-23T12:31:00;1.00;;;1.00;;
19566;SDS011;9930;49.240;8.548;2023-04-23T12:33:32;1.27;;;1.00;;
19566;SDS011;9930;49.240;8.548;2023-04-23T12:35:57;1.02;;;1.02;;
19566;SDS011;9930;49.240;8.548;2023-04-23T12:40:53;1.67;;;1.00;;
19566;SDS011;9930;49.240;8.548;2023-04-23T12:43:24;1.20;;;1.15;;
19566;SDS011;9930;49.240;8.548;2023-04-23T12:45:51;1.50;;;1.40;;
19566;SDS011;9930;49.240;8.548;2023-04-23T12:48:18;1.30;;;1.20;;
19566;SDS011;9930;49.240;8.548;2023-04-23T12:50:44;1.50;;;1.40;;
19566;SDS011;9930;49.240;8.548;2023-04-23T12:53:11;1.30;;;1.20;;
19566;SDS011;9930;49.240;8.548;2023-04-23T12:55:45;1.92;;;1.42;;
19566;SDS011;9930;49.240;8.548;2023-04-23T12:58:12;1.10;;;1.00;;
19566;SDS011;9930;49.240;8.548;2023-04-23T13:00:38;1.25;;;1.15;;
19566;SDS011;9930;49.240;8.548;2023-04-23T13:03:09;1.38;;;1.30;;
19566;SDS011;9930;49.240;8.548;2023-04-23T13:05:36;1.40;;;1.30;;
19566;SDS011;9930;49.240;8.548;2023-04-23T13:08:06;1.40;;;1.30;;
19566;SDS011;9930;49.240;8.548;2023-04-23T13:10:31;1.30;;;1.20;;
19566;SDS011;9930;49.240;8.548;2023-04-23T13:12:59;1.70;;;1.60;;
19566;SDS011;9930;49.240;8.548;2023-04-23T13:15:25;1.20;;;1.20;;
19566;SDS011;9930;49.240;8.548;2023-04-23T13:17:51;1.48;;;1.38;;
19566;SDS011;9930;49.240;8.548;2023-04-23T13:20:16;1.55;;;1.45;;
19566;SDS011;9930;49.240;8.548;2023-04-23T13:22:45;1.35;;;1.25;;
19566;SDS011;9930;49.240;8.548;2023-04-23T13:25:10;1.20;;;1.10;;
19566;SDS011;9930;49.240;8.548;2023-04-23T13:27:36;1.30;;;1.20;;
19566;SDS011;9930;49.240;8.548;2023-04-23T13:30:10;1.23;;;1.17;;
19566;SDS011;9930;49.240;8.548;2023-04-23T13:32:42;1.00;;;1.00;;
19566;SDS011;9930;49.240;8.548;2023-04-23T13:35:09;1.30;;;1.15;;
19566;SDS011;9930;49.240;8.548;2023-04-23T13:37:40;1.00;;;1.00;;
19566;SDS011;9930;49.240;8.548;2023-04-23T13:40:06;1.10;;;1.10;;
19566;SDS011;9930;49.240;8.548;2023-04-23T13:42:33;1.00;;;1.00;;
19566;SDS011;9930;49.240;8.548;2023-04-23T13:44:59;1.38;;;1.10;;
19566;SDS011;9930;49.240;8.548;2023-04-23T13:47:30;1.58;;;1.48;;
19566;SDS011;9930;49.240;8.548;2023-04-23T13:49:59;1.45;;;1.35;;
19566;SDS011;9930;49.240;8.548;2023-04-23T13:52:29;1.27;;;1.17;;
19566;SDS011;9930;49.240;8.548;2023-04-23T13:54:55;1.20;;;1.10;;
19566;SDS011;9930;49.240;8.548;2023-04-23T13:57:28;1.30;;;1.20;;
19566;SDS011;9930;49.240;8.548;2023-04-23T13:59:54;1.27;;;1.17;;
19566;SDS011;9930;49.240;8.548;2023-04-23T14:02:20;1.58;;;1.48;;
19566;SDS011;9930;49.240;8.548;2023-04-23T14:04:48;1.83;;;1.30;;
19566;SDS011;9930;49.240;8.548;2023-04-23T14:07:15;1.38;;;1.30;;
19566;SDS011;9930;49.240;8.548;2023-04-23T14:09:41;1.35;;;1.20;;
19566;SDS011;9930;49.240;8.548;2023-04-23T14:12:12;1.10;;;1.10;;
19566;SDS011;9930;49.240;8.548;2023-04-23T14:14:40;1.65;;;1.20;;
19566;SDS011;9930;49.240;8.548;2023-04-23T14:17:06;1.00;;;1.00;;
19566;SDS011;9930;49.240;8.548;2023-04-23T14:19:31;0.90;;;0.90;;
19566;SDS011;9930;49.240;8.548;2023-04-23T14:22:01;1.10;;;1.10;;
19566;SDS011;9930;49.240;8.548;2023-04-23T14:24:33;1.20;;;1.10;;
19566;SDS011;9930;49.240;8.548;2023-04-23T14:27:04;1.00;;;1.00;;
19566;SDS011;9930;49.240;8.548;2023-04-23T14:29:49;1.20;;;1.10;;
19566;SDS011;9930;49.240;8.548;2023-04-23T14:32:28;1.02;;;1.02;;
19566;SDS011;9930;49.240;8.548;2023-04-23T14:34:56;0.95;;;0.93;;
19566;SDS011;9930;49.240;8.548;2023-04-23T14:37:23;1.13;;;1.13;;
19566;SDS011;9930;49.240;8.548;2023-04-23T14:39:49;0.93;;;0.93;;
19566;SDS011;9930;49.240;8.548;2023-04-23T14:42:15;1.05;;;1.00;;
19566;SDS011;9930;49.240;8.548;2023-04-23T14:44:41;1.30;;;1.20;;
19566;SDS011;9930;49.240;8.548;2023-04-23T14:47:08;1.40;;;1.30;;
19566;SDS011;9930;49.240;8.548;2023-04-23T14:49:38;1.05;;;1.05;;
19566;SDS011;9930;49.240;8.548;2023-04-23T14:52:09;0.95;;;0.95;;
19566;SDS011;9930;49.240;8.548;2023-04-23T14:54:37;1.63;;;1.40;;
19566;SDS011;9930;49.240;8.548;2023-04-23T14:57:04;1.08;;;0.98;;
19566;SDS011;9930;49.240;8.548;2023-04-23T14:59:35;1.05;;;1.00;;
19566;SDS011;9930;49.240;8.548;2023-04-23T15:02:00;1.02;;;1.00;;
19566;SDS011;9930;49.240;8.548;2023-04-23T15:04:29;0.98;;;0.90;;
19566;SDS011;9930;49.240;8.548;2023-04-23T15:06:55;0.90;;;0.90;;
19566;SDS011;9930;49.240;8.548;2023-04-23T15:09:20;0.98;;;0.98;;
19566;SDS011;9930;49.240;8.548;2023-04-23T15:11:46;1.00;;;1.00;;
19566;SDS011;9930;49.240;8.548;2023-04-23T15:14:18;1.20;;;1.10;;
19566;SDS011;9930;49.240;8.548;2023-04-23T15:16:44;0.95;;;0.90;;
19566;SDS011;9930;49.240;8.548;2023-04-23T15:19:11;1.33;;;1.10;;
19566;SDS011;9930;49.240;8.548;2023-04-23T15:21:38;1.02;;;1.00;;
19566;SDS011;9930;49.240;8.548;2023-04-23T15:24:13;1.13;;;1.10;;
19566;SDS011;9930;49.240;8.548;2023-04-23T15:26:40;0.98;;;0.98;;
19566;SDS011;9930;49.240;8.548;2023-04-23T15:29:09;1.52;;;1.42;;
19566;SDS011;9930;49.240;8.548;2023-04-23T15:31:37;1.13;;;1.10;;